createdAt,value
2018-12-23T00:00:49.510Z,100070.69
2018-12-23T00:03:51.343Z,100072.88
2018-12-23T00:06:53.061Z,100072.19
2018-12-23T00:09:54.817Z,100065.11
2018-12-23T00:12:56.567Z,100063.30
2018-12-23T00:15:58.476Z,100066.66
2018-12-23T00:19:00.258Z,100062.26
2018-12-23T00:22:02.090Z,100072.08
2018-12-23T00:25:03.958Z,100070.93
2018-12-23T00:28:05.716Z,100078.02
2018-12-23T00:31:07.498Z,100088.08
2018-12-23T00:34:09.403Z,100086.38
2018-12-23T00:37:11.169Z,100090.69
2018-12-23T00:40:12.938Z,100092.61
2018-12-23T00:43:14.704Z,100092.03
2018-12-23T00:46:16.533Z,100092.06
2018-12-23T00:49:18.336Z,100098.14
2018-12-23T00:52:20.150Z,100099.59
2018-12-23T00:55:22.067Z,100104.26
2018-12-23T00:58:23.921Z,100103.47
2018-12-23T01:01:25.682Z,100104.05
2018-12-23T01:04:27.403Z,100116.67
2018-12-23T01:07:29.118Z,100109.05
2018-12-23T01:10:30.969Z,100118.64
2018-12-23T01:13:32.736Z,100118.37
2018-12-23T01:16:34.680Z,100125.70
2018-12-23T01:19:36.396Z,100126.52
2018-12-23T01:22:38.161Z,100129.77
2018-12-23T01:25:39.947Z,100131.44
2018-12-23T01:28:41.758Z,100131.19
2018-12-23T01:31:43.527Z,100130.05
2018-12-23T01:34:45.353Z,100133.27
2018-12-23T01:37:47.111Z,100134.84
2018-12-23T01:40:48.915Z,100137.34
2018-12-23T01:43:50.612Z,100121.45
2018-12-23T01:46:52.415Z,100123.59
2018-12-23T01:49:54.189Z,100128.80
2018-12-23T01:52:55.920Z,100130.53
2018-12-23T01:55:57.707Z,100129.69
2018-12-23T01:58:59.440Z,100131.33
2018-12-23T02:02:01.199Z,100135.73
2018-12-23T02:05:03.245Z,100137.42
2018-12-23T02:08:06.087Z,100145.08
2018-12-23T02:11:07.882Z,100148.17
2018-12-23T02:14:09.591Z,100143.58
2018-12-23T02:17:11.547Z,100145.84
2018-12-23T02:20:13.291Z,100144.78
2018-12-23T02:23:15.112Z,100143.61
2018-12-23T02:26:16.868Z,100154.03
2018-12-23T02:29:18.676Z,100158.68
2018-12-23T02:32:20.473Z,100161.66
2018-12-23T02:35:22.279Z,100165.13
2018-12-23T02:38:24.118Z,100170.05
2018-12-23T02:41:31.559Z,100164.01
2018-12-23T02:44:30.069Z,100169.72
2018-12-23T02:47:31.945Z,100163.16
2018-12-23T02:50:33.845Z,100172.42
2018-12-23T02:53:35.676Z,100181.75
2018-12-23T02:56:37.512Z,100187.71
2018-12-23T02:59:39.320Z,100183.55
2018-12-23T03:02:41.327Z,100189.25
2018-12-23T03:05:43.087Z,100193.05
2018-12-23T03:08:44.926Z,100185.91
2018-12-23T03:11:46.730Z,100186.15
2018-12-23T03:14:48.532Z,100191.89
2018-12-23T03:17:50.426Z,100187.76
2018-12-23T03:20:52.210Z,100193.16
2018-12-23T03:23:53.958Z,100203.37
2018-12-23T03:26:55.733Z,100204.23
2018-12-23T03:29:58.553Z,100211.57
2018-12-23T03:33:00.304Z,100209.63
2018-12-23T03:36:02.143Z,100208.26
2018-12-23T03:39:05.139Z,100216.45
2018-12-23T03:42:07.013Z,100215.60
2018-12-23T03:45:08.776Z,100218.06
2018-12-23T03:48:10.694Z,100210.37
2018-12-23T03:51:12.692Z,100211.67
2018-12-23T03:54:14.579Z,100217.61
2018-12-23T03:57:16.463Z,100224.69
2018-12-23T04:00:18.293Z,100232.64
2018-12-23T04:03:20.106Z,100233.11
2018-12-23T04:06:24.739Z,100233.31
2018-12-23T04:09:25.789Z,100239.87
2018-12-23T04:12:27.548Z,100240.69
2018-12-23T04:15:29.479Z,100238.77
2018-12-23T04:18:31.393Z,100242.56
2018-12-23T04:21:33.168Z,100246.42
2018-12-23T04:24:34.914Z,100253.80
2018-12-23T04:27:36.808Z,100261.45
2018-12-23T04:30:38.568Z,100265.83
2018-12-23T04:33:40.363Z,100269.56
2018-12-23T04:36:42.201Z,100278.05
2018-12-23T04:39:44.107Z,100279.72
2018-12-23T04:42:45.880Z,100284.72
2018-12-23T04:45:47.750Z,100294.59
2018-12-23T04:48:49.623Z,100290.81
2018-12-23T04:51:51.505Z,100295.69
2018-12-23T04:54:53.291Z,100299.55
2018-12-23T04:57:55.106Z,100304.20
2018-12-23T05:00:56.931Z,100312.08
2018-12-23T05:03:58.767Z,100318.41
2018-12-23T05:07:00.609Z,100314.82
2018-12-23T05:10:02.575Z,100323.06
2018-12-23T05:13:04.447Z,100330.20
2018-12-23T05:16:06.203Z,100343.36
2018-12-23T05:19:08.209Z,100344.96
2018-12-23T05:22:09.962Z,100348.47
2018-12-23T05:25:12.057Z,100351.39
2018-12-23T05:28:53.192Z,100352.02
2018-12-23T05:31:55.297Z,100360.59
2018-12-23T05:34:57.397Z,100362.41
2018-12-23T05:37:59.596Z,100357.22
2018-12-23T05:41:01.665Z,100359.13
2018-12-23T05:44:04.167Z,100361.31
2018-12-23T05:47:06.393Z,100369.28
2018-12-23T05:50:08.546Z,100367.64
2018-12-23T05:53:10.683Z,100375.25
2018-12-23T05:56:12.835Z,100383.72
2018-12-23T05:59:14.996Z,100383.17
2018-12-23T06:02:17.151Z,100397.30
2018-12-23T06:05:19.224Z,100406.53
2018-12-23T06:08:21.346Z,100405.42
2018-12-23T06:11:23.428Z,100407.02
2018-12-23T06:14:25.641Z,100413.53
2018-12-23T06:17:27.761Z,100411.57
2018-12-23T06:20:29.969Z,100417.03
2018-12-23T06:23:32.059Z,100420.36
2018-12-23T06:26:34.163Z,100426.59
2018-12-23T06:29:36.258Z,100429.61
2018-12-23T06:32:38.343Z,100437.56
2018-12-23T06:35:40.394Z,100432.59
2018-12-23T06:38:42.521Z,100438.60
2018-12-23T06:41:44.530Z,100439.59
2018-12-23T06:44:46.687Z,100448.55
2018-12-23T06:47:48.920Z,100460.02
2018-12-23T06:50:51.016Z,100454.51
2018-12-23T06:53:53.228Z,100451.83
2018-12-23T06:56:55.298Z,100443.20
2018-12-23T06:59:57.443Z,100445.05
2018-12-23T07:02:59.564Z,100447.47
2018-12-23T07:06:01.764Z,100445.00
2018-12-23T07:09:04.934Z,100446.31
2018-12-23T07:12:07.018Z,100449.05
2018-12-23T07:15:09.120Z,100450.69
2018-12-23T07:18:11.229Z,100451.56
2018-12-23T07:21:13.484Z,100441.45
2018-12-23T07:24:15.668Z,100445.83
2018-12-23T07:27:17.878Z,100445.61
2018-12-23T07:30:20.011Z,100449.31
2018-12-23T07:33:22.327Z,100449.58
2018-12-23T07:36:24.448Z,100448.49
2018-12-23T07:39:26.495Z,100467.86
2018-12-23T07:42:28.556Z,100470.87
2018-12-23T07:45:30.743Z,100484.86
2018-12-23T07:48:32.788Z,100483.87
2018-12-23T07:51:34.943Z,100473.30
2018-12-23T07:54:37.124Z,100473.36
2018-12-23T07:57:39.299Z,100479.78
2018-12-23T08:00:41.469Z,100489.84
2018-12-23T08:03:43.533Z,100490.53
2018-12-23T08:06:45.719Z,100491.31
2018-12-23T08:09:48.067Z,100493.27
2018-12-23T08:12:50.176Z,100479.29
2018-12-23T08:15:52.230Z,100491.86
2018-12-23T08:18:54.350Z,100489.49
2018-12-23T08:21:56.366Z,100491.23
2018-12-23T08:24:58.536Z,100484.16
2018-12-23T08:28:00.615Z,100487.80
2018-12-23T08:31:02.744Z,100492.77
2018-12-23T08:34:04.811Z,100490.43
2018-12-23T08:37:06.877Z,100491.89
2018-12-23T08:40:10.130Z,100500.69
2018-12-23T08:43:12.217Z,100496.86
2018-12-23T08:46:14.314Z,100497.95
2018-12-23T08:49:16.423Z,100486.84
2018-12-23T08:52:18.551Z,100482.88
2018-12-23T08:55:20.579Z,100473.63
2018-12-23T08:58:22.749Z,100462.45
2018-12-23T09:01:24.894Z,100460.66
2018-12-23T09:04:27.000Z,100452.22
2018-12-23T09:07:29.132Z,100454.73
2018-12-23T09:10:31.198Z,100448.77
2018-12-23T09:13:33.283Z,100455.31
2018-12-23T09:16:35.378Z,100461.31
2018-12-23T09:19:37.608Z,100454.44
2018-12-23T09:22:39.729Z,100451.39
2018-12-23T09:25:41.867Z,100448.07
2018-12-23T09:28:43.982Z,100460.67
2018-12-23T09:31:46.128Z,100467.22
2018-12-23T09:34:48.198Z,100461.61
2018-12-23T09:37:50.301Z,100457.23
2018-12-23T09:40:52.439Z,100467.36
2018-12-23T09:43:54.534Z,100456.89
2018-12-23T09:46:56.841Z,100457.74
2018-12-23T09:49:58.966Z,100455.04
2018-12-23T09:53:01.073Z,100457.63
2018-12-23T09:56:03.245Z,100454.70
2018-12-23T09:59:05.372Z,100459.16
2018-12-23T10:02:07.496Z,100456.34
2018-12-23T10:05:09.562Z,100446.22
2018-12-23T10:08:11.785Z,100443.63
2018-12-23T10:11:13.892Z,100441.41
2018-12-23T10:14:16.049Z,100434.22
2018-12-23T10:17:18.103Z,100432.58
2018-12-23T10:20:20.328Z,100434.44
2018-12-23T10:23:22.379Z,100418.58
2018-12-23T10:26:24.536Z,100418.92
2018-12-23T10:29:28.467Z,100411.34
2018-12-23T10:32:30.683Z,100407.86
2018-12-23T10:35:32.893Z,100405.75
2018-12-23T10:38:34.919Z,100401.95
2018-12-23T10:41:37.019Z,100397.31
2018-12-23T10:44:39.370Z,100388.02
2018-12-23T10:47:41.743Z,100389.42
2018-12-23T10:50:43.888Z,100380.33
2018-12-23T10:53:46.030Z,100372.05
2018-12-23T10:56:48.110Z,100374.17
2018-12-23T10:59:50.398Z,100361.02
2018-12-23T11:02:52.558Z,100360.47
2018-12-23T11:05:54.661Z,100355.56
2018-12-23T11:08:56.791Z,100355.61
2018-12-23T11:11:58.875Z,100352.87
2018-12-23T11:15:01.046Z,100351.51
2018-12-23T11:18:04.161Z,100343.23
2018-12-23T11:21:06.260Z,100344.03
2018-12-23T11:24:08.336Z,100341.87
2018-12-23T11:27:10.450Z,100333.97
2018-12-23T11:30:12.632Z,100343.27
2018-12-23T11:33:14.831Z,100331.51
2018-12-23T11:36:16.853Z,100324.43
2018-12-23T11:39:18.944Z,100323.48
2018-12-23T11:42:21.088Z,100329.04
2018-12-23T11:45:23.211Z,100316.97
2018-12-23T11:48:25.485Z,100313.41
2018-12-23T11:51:27.716Z,100311.48
2018-12-23T11:54:29.788Z,100308.39
2018-12-23T11:57:31.910Z,100304.81
2018-12-23T12:00:34.030Z,100301.41
2018-12-23T12:03:36.280Z,100300.80
2018-12-23T12:06:38.406Z,100295.78
2018-12-23T12:09:40.557Z,100292.80
2018-12-23T12:12:42.708Z,100296.96
2018-12-23T12:15:44.964Z,100288.77
2018-12-23T12:18:47.084Z,100272.62
2018-12-23T12:21:49.328Z,100269.10
2018-12-23T12:24:51.475Z,100268.28
2018-12-23T12:27:53.604Z,100267.95
2018-12-23T12:30:55.724Z,100257.22
2018-12-23T12:33:57.894Z,100256.42
2018-12-23T12:37:00.074Z,100250.94
2018-12-23T12:40:02.201Z,100242.72
2018-12-23T12:43:04.247Z,100244.13
2018-12-23T12:46:06.350Z,100238.43
2018-12-23T12:49:08.545Z,100235.12
2018-12-23T12:52:10.735Z,100236.30
2018-12-23T12:55:12.867Z,100236.34
2018-12-23T12:58:14.902Z,100235.84
2018-12-23T13:01:17.010Z,100232.83
2018-12-23T13:04:19.205Z,100233.59
2018-12-23T13:07:21.405Z,100230.06
2018-12-23T13:10:23.551Z,100231.16
2018-12-23T13:13:25.850Z,100234.20
2018-12-23T13:16:27.938Z,100226.00
2018-12-23T13:19:30.084Z,100218.22
2018-12-23T13:22:32.273Z,100210.23
2018-12-23T13:25:34.499Z,100212.66
2018-12-23T13:28:36.619Z,100213.69
2018-12-23T13:31:38.731Z,100213.18
2018-12-23T13:34:40.892Z,100212.91
2018-12-23T13:37:43.033Z,100213.75
2018-12-23T13:40:51.472Z,100212.67
2018-12-23T13:44:09.681Z,100206.69
2018-12-23T13:47:27.244Z,100202.23
2018-12-23T13:50:52.912Z,100211.56
2018-12-23T13:54:17.198Z,100202.22
2018-12-23T13:57:38.453Z,100183.48
2018-12-23T14:01:01.106Z,100179.63
2018-12-23T14:04:15.643Z,100179.37
2018-12-23T14:07:41.265Z,100176.63
2018-12-23T14:10:52.953Z,100162.08
2018-12-23T14:13:55.108Z,100157.40
2018-12-23T14:16:57.291Z,100163.72
2018-12-23T14:19:59.373Z,100154.68
2018-12-23T14:23:01.487Z,100161.52
2018-12-23T14:26:03.686Z,100154.38
2018-12-23T14:29:05.893Z,100155.98
2018-12-23T14:32:08.068Z,100151.57
2018-12-23T14:35:10.157Z,100154.79
2018-12-23T14:38:12.252Z,100147.67
2018-12-23T14:41:14.390Z,100151.20
2018-12-23T14:44:16.516Z,100147.93
2018-12-23T14:47:18.696Z,100142.69
2018-12-23T14:50:20.798Z,100139.97
2018-12-23T14:53:22.913Z,100138.89
2018-12-23T14:56:25.128Z,100129.56
2018-12-23T14:59:27.300Z,100120.47
2018-12-23T15:02:29.455Z,100122.69
2018-12-23T15:05:31.669Z,100115.84
2018-12-23T15:08:33.847Z,100116.98
2018-12-23T15:11:35.975Z,100112.88
2018-12-23T15:14:38.161Z,100118.91
2018-12-23T15:17:41.473Z,100106.57
2018-12-23T15:20:43.598Z,100109.30
2018-12-23T15:23:45.772Z,100112.86
2018-12-23T15:26:47.967Z,100104.36
2018-12-23T15:29:50.159Z,100102.64
2018-12-23T15:32:52.231Z,100099.28
2018-12-23T15:35:54.353Z,100095.92
2018-12-23T15:38:56.472Z,100092.41
2018-12-23T15:41:58.720Z,100088.91
2018-12-23T15:45:00.906Z,100086.20
2018-12-23T15:48:02.962Z,100083.70
2018-12-23T15:51:05.028Z,100076.84
2018-12-23T15:54:07.154Z,100078.23
2018-12-23T15:57:09.334Z,100065.33
2018-12-23T16:00:11.450Z,100065.03
2018-12-23T16:03:13.639Z,100060.09
2018-12-23T16:06:15.754Z,100054.59
2018-12-23T16:09:18.019Z,100055.69
2018-12-23T16:12:20.144Z,100048.30
2018-12-23T16:15:22.289Z,100052.47
2018-12-23T16:18:24.371Z,100043.73
2018-12-23T16:21:26.435Z,100041.81
2018-12-23T16:24:28.477Z,100043.47
2018-12-23T16:27:30.860Z,100037.75
2018-12-23T16:30:32.956Z,100033.34
2018-12-23T16:33:35.086Z,100040.19
2018-12-23T16:36:37.233Z,100033.64
2018-12-23T16:39:39.303Z,100037.22
2018-12-23T16:42:41.485Z,100024.90
2018-12-23T16:45:43.638Z,100022.39
2018-12-23T16:48:45.770Z,100015.56
2018-12-23T16:51:47.841Z,100010.08
2018-12-23T16:54:49.954Z,100001.91
2018-12-23T16:57:52.115Z,100002.41
2018-12-23T17:00:54.293Z,100002.94
2018-12-23T17:03:56.354Z,99994.45
2018-12-23T17:06:58.477Z,99992.56
2018-12-23T17:10:07.856Z,99992.03
2018-12-23T17:13:04.674Z,99985.45
2018-12-23T17:16:06.820Z,99984.66
2018-12-23T17:19:09.004Z,99977.81
2018-12-23T17:22:11.144Z,99969.87
2018-12-23T17:25:13.314Z,99963.84
2018-12-23T17:28:15.491Z,99960.83
2018-12-23T17:31:18.690Z,99968.47
2018-12-23T17:34:20.809Z,99964.89
2018-12-23T17:37:23.016Z,99959.69
2018-12-23T17:40:25.063Z,99957.79
2018-12-23T17:43:27.628Z,99950.70
2018-12-23T17:46:29.673Z,99949.05
2018-12-23T17:49:31.802Z,99952.62
2018-12-23T17:52:33.977Z,99941.92
2018-12-23T17:55:36.084Z,99942.77
2018-12-23T17:58:38.278Z,99933.16
2018-12-23T18:01:40.395Z,99935.63
2018-12-23T18:04:42.519Z,99934.50
2018-12-23T18:07:44.623Z,99929.31
2018-12-23T18:10:46.892Z,99919.19
2018-12-23T18:13:49.050Z,99927.92
2018-12-23T18:16:51.173Z,99927.14
2018-12-23T18:19:53.239Z,99925.22
2018-12-23T18:22:55.370Z,99921.92
2018-12-23T18:25:57.509Z,99910.69
2018-12-23T18:28:59.720Z,99913.43
2018-12-23T18:32:01.830Z,99906.61
2018-12-23T18:35:03.967Z,99896.73
2018-12-23T18:38:07.132Z,99897.25
2018-12-23T18:41:09.653Z,99894.53
2018-12-23T18:44:12.015Z,99885.16
2018-12-23T18:47:14.223Z,99883.49
2018-12-23T18:50:16.337Z,99882.13
2018-12-23T18:53:18.474Z,99872.60
2018-12-23T18:56:21.579Z,99879.42
2018-12-23T18:59:23.876Z,99875.59
2018-12-23T19:02:27.864Z,99874.52
2018-12-23T19:05:30.076Z,99868.72
2018-12-23T19:08:34.747Z,99868.16
2018-12-23T19:11:40.581Z,99865.91
2018-12-23T19:14:51.983Z,99856.58
2018-12-23T19:18:00.846Z,99856.54
2018-12-23T19:21:09.337Z,99849.13
2018-12-23T19:24:20.865Z,99843.97
2018-12-23T19:27:29.565Z,99843.70
2018-12-23T19:30:47.393Z,99838.81
2018-12-23T19:33:55.900Z,99846.21
2018-12-23T19:37:31.593Z,99836.36
2018-12-23T19:41:06.585Z,99836.13
2018-12-23T19:44:31.061Z,99834.20
2018-12-23T19:47:52.086Z,99832.02
2018-12-23T19:51:33.450Z,99826.26
2018-12-23T19:54:48.166Z,99824.08
2018-12-23T19:58:08.576Z,99821.27
2018-12-23T20:01:20.199Z,99817.45
2018-12-23T20:04:42.791Z,99820.75
2018-12-23T20:08:07.977Z,99817.73
2018-12-23T20:11:16.692Z,99810.05
2018-12-23T20:14:40.438Z,99810.64
2018-12-23T20:17:48.883Z,99810.37
2018-12-23T20:21:03.655Z,99804.92
2018-12-23T20:24:30.849Z,99810.69
2018-12-23T20:27:45.566Z,99803.57
2018-12-23T20:31:07.908Z,99799.73
2018-12-23T20:34:13.651Z,99787.16
2018-12-23T20:37:31.670Z,99794.80
2018-12-23T20:41:07.487Z,99786.91
2018-12-23T20:44:11.391Z,99791.83
2018-12-23T20:47:37.920Z,99792.36
2018-12-23T20:51:04.140Z,99792.38
2018-12-23T20:54:28.194Z,99776.51
2018-12-23T20:57:40.014Z,99773.22
2018-12-23T21:00:48.837Z,99772.70
2018-12-23T21:04:16.231Z,99769.71
2018-12-23T21:07:31.176Z,99777.65
2018-12-23T21:10:59.889Z,99756.83
2018-12-23T21:14:28.557Z,99752.45
2018-12-23T21:17:40.447Z,99755.45
2018-12-23T21:20:46.132Z,99754.06
2018-12-23T21:24:16.546Z,99749.99
2018-12-23T21:27:42.306Z,99739.05
2018-12-23T21:30:50.804Z,99740.13
2018-12-23T21:34:11.772Z,99739.03
2018-12-23T21:37:23.746Z,99726.73
2018-12-23T21:40:44.791Z,99738.52
2018-12-23T21:44:22.779Z,99746.72
2018-12-23T21:47:40.642Z,99738.48
2018-12-23T21:51:18.541Z,99727.50
2018-12-23T21:54:27.262Z,99740.61
2018-12-23T21:57:51.803Z,99742.21
2018-12-23T22:01:12.666Z,99725.28
2018-12-23T22:04:26.980Z,99723.08
2018-12-23T22:07:47.994Z,99720.08
2018-12-23T22:11:06.090Z,99711.89
2018-12-23T22:14:08.143Z,99703.69
2018-12-23T22:17:10.290Z,99698.48
2018-12-23T22:20:12.485Z,99700.18
2018-12-23T22:23:14.581Z,99692.80
2018-12-23T22:26:16.709Z,99685.12
2018-12-23T22:29:18.859Z,99681.87
2018-12-23T22:32:21.070Z,99679.95
2018-12-23T22:35:23.165Z,99682.94
2018-12-23T22:38:25.379Z,99671.74
2018-12-23T22:41:27.686Z,99664.94
2018-12-23T22:44:29.813Z,99660.00
2018-12-23T22:47:31.966Z,99647.44
2018-12-23T22:50:34.069Z,99654.55
2018-12-23T22:53:36.217Z,99627.47
2018-12-23T22:56:38.389Z,99626.91
2018-12-23T22:59:40.509Z,99640.57
2018-12-23T23:02:42.708Z,99628.82
2018-12-23T23:05:44.858Z,99632.65
2018-12-23T23:08:47.050Z,99623.07
2018-12-23T23:11:49.972Z,99618.70
2018-12-23T23:14:52.387Z,99612.16
2018-12-23T23:17:54.508Z,99617.61
2018-12-23T23:20:56.711Z,99622.80
2018-12-23T23:23:58.878Z,99609.15
2018-12-23T23:27:01.044Z,99612.97
2018-12-23T23:30:04.433Z,99597.92
2018-12-23T23:33:06.772Z,99591.09
2018-12-23T23:36:08.917Z,99591.37
2018-12-23T23:39:11.036Z,99584.01
2018-12-23T23:42:13.204Z,99576.88
2018-12-23T23:45:15.340Z,99567.32
2018-12-23T23:48:17.370Z,99568.70
2018-12-23T23:51:19.475Z,99580.75
2018-12-23T23:54:21.534Z,99586.74
2018-12-23T23:57:23.639Z,99571.72
